CheckWX is a tool to help pilots better visualize weather data.  It is not intended as a substitute for an official pre-flight weather briefing.

00:36:05 UTC

VTSB METAR
Surat Thani Airport
Surat Thani, Thailand
Current

36 mins ago

VTSB 070000Z VRB02KT 8000 FEW020 25/25 Q1009
Observed
Jul-7 @ 00:00 UTC
Wind
  • Variable at 2 KTS
Visibility
7998 meters
Flight Rules
MVFR
Cloud Levels
  • Few at 2,000' AGL
Temperature
25°C / 77°F
Dewpoint
25°C / 77°F
Humidity
100%
Altimeter
29.79" Hg
Pressure
1008.92 hPa
Previous

2 hours ago

VTSB 062300Z 22001KT 7000 FEW020 25/24 Q1008
Observed
Jul-6 @ 23:00 UTC
Wind
  • 220° at 1 KTS
Visibility
7001 meters
Flight Rules
MVFR
Cloud Levels
  • Few at 2,000' AGL
Temperature
25°C / 77°F
Dewpoint
24°C / 75°F
Humidity
94%
Altimeter
29.76" Hg
Pressure
1007.92 hPa
Previous

3 hours ago

VTSB 062200Z 24004KT 6000 FEW020 25/24 Q1008
Observed
Jul-6 @ 22:00 UTC
Wind
  • 240° at 4 KTS
Visibility
6003 meters
Flight Rules
MVFR
Cloud Levels
  • Few at 2,000' AGL
Temperature
25°C / 77°F
Dewpoint
24°C / 75°F
Humidity
94%
Altimeter
29.76" Hg
Pressure
1007.92 hPa